Frostburg, Maryland
Current Conditions -  °F | °C
As of 1:42 AM on Monday 24 Nov 2014 (Local Time) from KCBE Reporting Station
Overcast Overcast  
Wind Chill: 52°   Ceiling: 1300
Heat Index: 52°   Visibility: 5mi
Dew Point: 50°   Wind: 3mph
Humidity: 94%   Direction: 160°SSE
Pressure: 29.64"   Gusts: NA
Location:  39.66°N, 78.93°W
Report Text: KCBE 240642Z AUTO 16003KT 5SM OVC013 11/10 A2964 RMK AO1
Loading
Personal Weather Stations






























Interactive Weather Map New forecast layout! Learn more

10-Day Weather Forecast

Advertisements
Track Severe Weather on mobile